Impacts TAF Board
For situational awareness. Not to be used for flight planning purposes.
IDs:

KDTW - Detroit Metro/Wayne, MI, US

Issued at 1125 UTC 20 Jul 2019
Updated at 1335 UTC 20 Jul 2019
Potential Impact None Slight Moderate High
Time<<21/14Z 21/15Z 21/16Z 21/17Z 21/18Z 21/19Z 21/20Z 21/21Z 21/22Z 21/23Z 22/00Z 22/01Z 22/02Z
Type PRVL PRVL PRVL PRVL
VIS 6 6 6 6
CIG -- -- -- --
Cover SCT SCT SCT SCT
FltCat VFR VFR VFR VFR
WX HZ HZ HZ HZ
WDir 330 330 330 330
WSpd 5 5 5 5
WGst -- -- -- --
Raw TAF
KDTW 201125Z 2012/2118 24010KT P6SM SCT100 BKN250
  FM201800 22013G20KT P6SM SCT045 BKN100
  TEMPO 2021/2101 2SM TSRA OVC030CB
  FM210200 25009KT P6SM SCT080 BKN150
  FM210600 33005KT 6SM HZ SCT035


METAR Board
Radar Display
Forecast Discussion
For situational awareness. Not to be used for flight planning purposes.